createdAt,value
2023-04-05T00:02:02.128Z,12.48
2023-04-05T00:04:34.925Z,12.00
2023-04-05T00:07:08.416Z,12.38
2023-04-05T00:09:38.042Z,11.48
2023-04-05T00:12:08.273Z,12.13
2023-04-05T00:14:40.452Z,12.38
2023-04-05T00:17:11.136Z,12.93
2023-04-05T00:19:43.164Z,12.52
2023-04-05T00:22:13.341Z,12.68
2023-04-05T00:24:43.677Z,12.77
2023-04-05T00:27:13.376Z,13.88
2023-04-05T00:29:45.611Z,13.48
2023-04-05T00:32:15.646Z,13.63
2023-04-05T00:34:45.201Z,13.60
2023-04-05T00:37:14.875Z,14.32
2023-04-05T00:39:44.447Z,13.32
2023-04-05T00:42:14.184Z,14.00
2023-04-05T00:44:46.270Z,13.13
2023-04-05T00:47:15.898Z,14.35
2023-04-05T00:49:45.561Z,12.85
2023-04-05T00:52:15.255Z,13.25
2023-04-05T00:54:45.561Z,12.75
2023-04-05T00:57:16.806Z,13.40
2023-04-05T00:59:48.965Z,13.60
2023-04-05T01:02:24.771Z,13.30
2023-04-05T01:05:02.226Z,13.80
2023-04-05T01:07:39.292Z,13.10
2023-04-05T01:10:14.673Z,12.32
2023-04-05T01:12:44.756Z,13.65
2023-04-05T01:15:18.978Z,12.77
2023-04-05T01:17:49.190Z,12.48
2023-04-05T01:20:18.823Z,13.13
2023-04-05T01:23:14.907Z,12.90
2023-04-05T01:26:14.442Z,12.20
2023-04-05T01:29:04.375Z,13.23
2023-04-05T01:31:44.135Z,12.95
2023-04-05T01:34:23.048Z,13.40
2023-04-05T01:36:57.511Z,13.55
2023-04-05T01:39:28.560Z,13.20
2023-04-05T01:42:01.765Z,13.27
2023-04-05T01:44:31.882Z,13.75
2023-04-05T01:47:04.088Z,12.40
2023-04-05T01:49:33.661Z,12.80
2023-04-05T01:52:03.157Z,12.93
2023-04-05T01:54:32.717Z,13.57
2023-04-05T01:57:02.386Z,13.75
2023-04-05T01:59:31.960Z,13.63
2023-04-05T02:02:04.337Z,13.68
2023-04-05T02:04:33.871Z,13.00
2023-04-05T02:07:03.866Z,14.27
2023-04-05T02:09:33.482Z,13.50
2023-04-05T02:12:03.057Z,13.13
2023-04-05T02:14:32.599Z,13.70
2023-04-05T02:17:04.772Z,13.93
2023-04-05T02:19:41.032Z,14.23
2023-04-05T02:22:11.015Z,14.32
2023-04-05T02:24:40.839Z,14.43
2023-04-05T02:27:10.881Z,14.38
2023-04-05T02:29:40.687Z,14.07
2023-04-05T02:32:12.809Z,14.15
2023-04-05T02:34:43.082Z,13.30
2023-04-05T02:37:12.598Z,13.85
2023-04-05T02:39:42.115Z,14.27
2023-04-05T02:42:11.642Z,15.05
2023-04-05T02:44:41.434Z,15.77
2023-04-05T02:47:17.451Z,15.20
2023-04-05T02:49:46.995Z,12.48
2023-04-05T02:52:16.921Z,14.93
2023-04-05T02:54:46.980Z,14.07
2023-04-05T02:57:16.850Z,12.55
2023-04-05T02:59:46.426Z,13.65
2023-04-05T03:02:18.890Z,13.02
2023-04-05T03:04:48.430Z,13.25
2023-04-05T03:07:18.721Z,12.00
2023-04-05T03:09:48.604Z,12.25
2023-04-05T03:12:18.119Z,13.70
2023-04-05T03:14:47.657Z,13.98
2023-04-05T03:17:19.842Z,16.25
2023-04-05T03:19:49.389Z,16.10
2023-04-05T03:22:18.913Z,15.93
2023-04-05T03:24:48.412Z,13.18
2023-04-05T03:27:19.284Z,11.82
2023-04-05T03:29:49.323Z,13.05
2023-04-05T03:32:21.415Z,12.25
2023-04-05T03:34:51.572Z,12.65
2023-04-05T03:37:21.099Z,11.77
2023-04-05T03:39:50.891Z,13.05
2023-04-05T03:42:20.448Z,13.75
2023-04-05T03:44:52.732Z,14.82
2023-04-05T03:47:24.930Z,14.25
2023-04-05T03:49:54.495Z,14.43
2023-04-05T03:52:24.065Z,12.80
2023-04-05T03:54:53.577Z,14.30
2023-04-05T03:57:23.166Z,13.68
2023-04-05T03:59:52.718Z,13.60
2023-04-05T04:02:25.018Z,12.57
2023-04-05T04:04:54.745Z,12.75
2023-04-05T04:07:24.320Z,11.60
2023-04-05T04:09:55.564Z,12.50
2023-04-05T04:12:25.124Z,11.57
2023-04-05T04:14:54.650Z,12.57
2023-04-05T04:17:33.111Z,13.20
2023-04-05T04:20:07.891Z,12.32
2023-04-05T04:22:38.952Z,12.23
2023-04-05T04:25:10.490Z,11.40
2023-04-05T04:27:42.249Z,12.73
2023-04-05T04:30:13.823Z,12.18
2023-04-05T04:32:55.761Z,12.65
2023-04-05T04:35:28.091Z,12.38
2023-04-05T04:38:00.699Z,12.88
2023-04-05T04:40:32.637Z,12.65
2023-04-05T04:43:02.822Z,12.23
2023-04-05T04:45:35.110Z,12.57
2023-04-05T04:48:08.338Z,11.90
2023-04-05T04:50:39.390Z,12.10
2023-04-05T04:53:09.576Z,9.43
2023-04-05T04:55:39.275Z,10.07
2023-04-05T04:58:10.347Z,9.45
2023-04-05T05:00:42.248Z,9.15
2023-04-05T05:03:14.918Z,9.20
2023-04-05T05:05:48.157Z,9.55
2023-04-05T05:08:20.486Z,9.43
2023-04-05T05:10:54.274Z,9.77
2023-04-05T05:13:23.861Z,10.60
2023-04-05T05:15:53.413Z,10.63
2023-04-05T05:18:26.247Z,10.77
2023-04-05T05:20:55.818Z,10.32
2023-04-05T05:23:25.575Z,10.55
2023-04-05T05:26:00.970Z,9.70
2023-04-05T05:28:30.664Z,10.60
2023-04-05T05:31:01.063Z,9.80
2023-04-05T05:33:34.229Z,9.95
2023-04-05T05:36:04.282Z,10.80
2023-04-05T05:38:33.891Z,10.13
2023-04-05T05:41:03.512Z,10.10
2023-04-05T05:43:33.069Z,10.82
2023-04-05T05:46:04.079Z,10.15
2023-04-05T05:48:37.065Z,9.98
2023-04-05T05:51:10.046Z,10.30
2023-04-05T05:53:40.438Z,10.75
2023-04-05T05:56:10.689Z,10.45
2023-04-05T05:58:42.074Z,11.05
2023-04-05T06:01:12.275Z,10.27
2023-04-05T06:03:44.663Z,10.15
2023-04-05T06:06:14.251Z,9.23
2023-04-05T06:08:43.897Z,10.07
2023-04-05T06:11:20.368Z,9.77
2023-04-05T06:13:50.216Z,10.90
2023-04-05T06:16:19.829Z,10.15
2023-04-05T06:18:52.312Z,9.25
2023-04-05T06:21:21.924Z,8.98
2023-04-05T06:23:51.555Z,9.15
2023-04-05T06:26:23.332Z,8.55
2023-04-05T06:28:53.756Z,8.00
2023-04-05T06:31:31.295Z,9.35
2023-04-05T06:34:03.463Z,9.40
2023-04-05T06:36:34.713Z,8.52
2023-04-05T06:39:04.764Z,8.57
2023-04-05T06:41:34.355Z,8.80
2023-04-05T06:44:03.907Z,9.05
2023-04-05T06:46:33.556Z,8.98
2023-04-05T06:49:05.820Z,8.80
2023-04-05T06:51:35.506Z,9.05
2023-04-05T06:54:05.088Z,8.75
2023-04-05T06:56:34.637Z,9.13
2023-04-05T06:59:04.222Z,9.73
2023-04-05T07:01:33.877Z,8.77
2023-04-05T07:04:06.281Z,8.88
2023-04-05T07:06:39.229Z,8.85
2023-04-05T07:09:08.856Z,8.93
2023-04-05T07:11:40.095Z,9.00
2023-04-05T07:14:09.947Z,8.98
2023-04-05T07:16:39.518Z,9.20
2023-04-05T07:19:12.062Z,9.48
2023-04-05T07:21:42.237Z,8.88
2023-04-05T07:24:11.898Z,10.05
2023-04-05T07:26:41.622Z,8.88
2023-04-05T07:29:13.153Z,9.82
2023-04-05T07:31:44.579Z,9.50
2023-04-05T07:34:16.908Z,8.27
2023-04-05T07:36:47.098Z,8.70
2023-04-05T07:39:16.741Z,8.43
2023-04-05T07:41:46.472Z,9.05
2023-04-05T07:44:16.120Z,8.13
2023-04-05T07:46:48.928Z,8.35
2023-04-05T07:49:21.587Z,7.95
2023-04-05T07:51:53.268Z,8.43
2023-04-05T07:54:22.870Z,8.32
2023-04-05T07:56:53.051Z,9.32
2023-04-05T07:59:22.692Z,8.90
2023-04-05T08:01:53.960Z,7.88
2023-04-05T08:04:29.252Z,8.63
2023-04-05T08:06:58.864Z,8.10
2023-04-05T08:09:28.449Z,8.27
2023-04-05T08:11:57.980Z,7.85
2023-04-05T08:14:27.539Z,7.93
2023-04-05T08:16:57.175Z,7.30
2023-04-05T08:19:29.502Z,7.25
2023-04-05T08:21:59.025Z,7.72
2023-04-05T08:24:28.679Z,7.38
2023-04-05T08:26:58.263Z,6.70
2023-04-05T08:29:27.958Z,6.32
2023-04-05T08:31:59.495Z,6.80
2023-04-05T08:34:31.945Z,5.97
2023-04-05T08:37:02.405Z,5.32
2023-04-05T08:39:34.343Z,3.50
2023-04-05T08:42:07.662Z,5.10
2023-04-05T08:44:40.062Z,5.63
2023-04-05T08:47:15.257Z,4.68
2023-04-05T08:49:49.113Z,4.60
2023-04-05T08:52:19.115Z,4.07
2023-04-05T08:54:50.740Z,4.70
2023-04-05T08:57:21.840Z,4.40
2023-04-05T08:59:51.634Z,3.70
2023-04-05T09:02:26.165Z,4.03
2023-04-05T09:04:59.541Z,3.17
2023-04-05T09:07:32.596Z,3.50
2023-04-05T09:10:04.978Z,3.47
2023-04-05T09:12:40.268Z,3.55
2023-04-05T09:15:11.361Z,3.85
2023-04-05T09:17:43.816Z,3.10
2023-04-05T09:20:16.000Z,3.80
2023-04-05T09:22:46.746Z,3.50
2023-04-05T09:25:39.813Z,3.42
2023-04-05T09:28:10.096Z,2.97
2023-04-05T09:30:40.228Z,3.25
2023-04-05T09:33:11.796Z,3.30
2023-04-05T09:35:44.239Z,3.88
2023-04-05T09:38:13.958Z,3.75
2023-04-05T09:40:45.919Z,3.78
2023-04-05T09:43:17.518Z,4.03
2023-04-05T09:45:47.163Z,4.43
2023-04-05T09:48:16.747Z,4.05
2023-04-05T09:50:49.572Z,3.92
2023-04-05T09:53:19.483Z,3.63
2023-04-05T09:55:49.165Z,4.63
2023-04-05T09:58:23.542Z,4.22
2023-04-05T10:01:06.168Z,5.22
2023-04-05T10:03:50.717Z,5.07
2023-04-05T10:06:23.061Z,4.93
2023-04-05T10:08:53.417Z,4.85
2023-04-05T10:11:23.720Z,4.40
2023-04-05T10:13:54.408Z,4.13
2023-04-05T10:16:26.000Z,4.45
2023-04-05T10:18:56.413Z,3.85
2023-04-05T10:21:32.933Z,4.25
2023-04-05T10:24:08.862Z,3.70
2023-04-05T10:26:44.217Z,4.47
2023-04-05T10:29:18.092Z,4.07
2023-04-05T10:31:54.833Z,4.80
2023-04-05T10:34:34.233Z,4.05
2023-04-05T10:37:07.421Z,4.20
2023-04-05T10:39:41.497Z,3.90
2023-04-05T10:42:19.825Z,4.28
2023-04-05T10:44:55.845Z,4.40
2023-04-05T10:47:29.206Z,5.78
2023-04-05T10:50:02.991Z,4.68
2023-04-05T10:52:37.189Z,4.88
2023-04-05T10:55:08.031Z,4.50
2023-04-05T10:57:39.371Z,4.68
2023-04-05T11:00:10.775Z,4.80
2023-04-05T11:02:41.181Z,4.93
2023-04-05T11:05:35.925Z,4.53
2023-04-05T11:08:12.741Z,4.25
2023-04-05T11:10:42.801Z,4.13
2023-04-05T11:13:15.239Z,5.30
2023-04-05T11:15:44.803Z,4.22
2023-04-05T11:18:23.468Z,4.20
2023-04-05T11:20:56.325Z,4.40
2023-04-05T11:23:28.674Z,4.50
2023-04-05T11:25:59.960Z,4.40
2023-04-05T11:28:32.875Z,4.68
2023-04-05T11:31:16.753Z,5.07
2023-04-05T11:34:10.281Z,4.50
2023-04-05T11:36:42.207Z,4.28
2023-04-05T11:39:30.244Z,4.50
2023-04-05T11:42:03.618Z,4.43
2023-04-05T11:44:42.225Z,4.28
2023-04-05T11:47:12.169Z,4.25
2023-04-05T11:49:42.782Z,4.55
2023-04-05T11:52:17.617Z,3.85
2023-04-05T11:54:50.326Z,3.63
2023-04-05T11:57:23.847Z,3.42
2023-04-05T11:59:54.612Z,3.75
2023-04-05T12:02:24.819Z,3.45
2023-04-05T12:04:58.914Z,3.90
2023-04-05T12:07:32.716Z,3.67
2023-04-05T12:10:08.605Z,3.50
2023-04-05T12:12:40.054Z,3.78
2023-04-05T12:15:12.152Z,4.00
2023-04-05T12:17:46.528Z,4.30
2023-04-05T12:20:19.497Z,3.78
2023-04-05T12:22:51.983Z,3.50
2023-04-05T12:25:24.529Z,4.40
2023-04-05T12:27:54.065Z,4.20
2023-04-05T12:30:25.586Z,3.95
2023-04-05T12:32:56.585Z,4.47
2023-04-05T12:35:32.767Z,4.30
2023-04-05T12:40:35.651Z,4.05
2023-04-05T12:43:06.495Z,3.35
2023-04-05T12:45:40.895Z,4.47
2023-04-05T12:48:13.305Z,3.65
2023-04-05T12:50:46.630Z,4.25
2023-04-05T12:53:21.388Z,4.07
2023-04-05T12:55:55.426Z,4.90
2023-04-05T12:58:34.734Z,4.85
2023-04-05T13:01:04.457Z,3.97
2023-04-05T13:03:34.053Z,4.80
2023-04-05T13:06:03.623Z,3.92
2023-04-05T13:08:33.754Z,4.05
2023-04-05T13:11:05.943Z,3.60
2023-04-05T13:13:36.100Z,4.00
2023-04-05T13:16:05.795Z,3.75
2023-04-05T13:18:35.349Z,3.67
2023-04-05T13:21:08.633Z,4.38
2023-04-05T13:23:38.603Z,4.18
2023-04-05T13:26:11.676Z,4.20
2023-04-05T13:28:41.210Z,3.55
2023-04-05T13:31:11.686Z,4.40
2023-04-05T13:33:42.521Z,4.47
2023-04-05T13:36:13.728Z,5.20
2023-04-05T13:38:43.360Z,4.45
2023-04-05T13:41:16.197Z,5.47
2023-04-05T13:43:45.752Z,5.90
2023-04-05T13:46:15.356Z,5.55
2023-04-05T13:48:44.995Z,5.45
2023-04-05T13:51:14.631Z,5.72
2023-04-05T13:53:44.479Z,5.50
2023-04-05T13:56:16.618Z,5.32
2023-04-05T13:58:46.179Z,5.20
2023-04-05T14:01:16.443Z,5.00
2023-04-05T14:03:46.229Z,4.97
2023-04-05T14:06:15.896Z,4.50
2023-04-05T14:08:45.531Z,4.70
2023-04-05T14:11:17.641Z,3.25
2023-04-05T14:13:47.212Z,4.07
2023-04-05T14:16:16.865Z,4.57
2023-04-05T14:18:46.559Z,4.63
2023-04-05T14:21:16.255Z,4.75
2023-04-05T14:23:45.888Z,4.85
2023-04-05T14:26:17.968Z,2.88
2023-04-05T14:28:47.525Z,4.68
2023-04-05T14:31:17.168Z,3.47
2023-04-05T14:33:46.898Z,4.45
2023-04-05T14:36:16.387Z,3.78
2023-04-05T14:38:45.987Z,3.80
2023-04-05T14:41:19.431Z,4.20
2023-04-05T14:43:48.961Z,4.75
2023-04-05T14:46:18.531Z,4.25
2023-04-05T14:48:48.563Z,2.85
2023-04-05T14:51:18.272Z,4.07
2023-04-05T14:53:47.884Z,4.63
2023-04-05T14:56:20.087Z,3.22
2023-04-05T14:58:49.892Z,3.72
2023-04-05T15:01:19.566Z,4.30
2023-04-05T15:03:52.105Z,4.60
2023-04-05T15:06:23.134Z,4.22
2023-04-05T15:08:52.702Z,4.10
2023-04-05T15:11:24.928Z,3.78
2023-04-05T15:13:56.352Z,4.30
2023-04-05T15:16:25.954Z,3.80
2023-04-05T15:18:56.009Z,4.28
2023-04-05T15:21:25.909Z,3.83
2023-04-05T15:23:55.507Z,4.10
2023-04-05T15:26:27.651Z,3.78
2023-04-05T15:28:57.354Z,3.35
2023-04-05T15:31:27.050Z,3.83
2023-04-05T15:33:56.894Z,4.00
2023-04-05T15:36:28.327Z,3.80
2023-04-05T15:38:57.863Z,4.10
2023-04-05T15:41:30.390Z,4.55
2023-04-05T15:44:00.245Z,3.80
2023-04-05T15:46:30.145Z,3.88
2023-04-05T15:49:00.180Z,3.90
2023-04-05T15:51:30.038Z,3.78
2023-04-05T15:53:59.972Z,4.40
2023-04-05T15:56:32.392Z,3.55
2023-04-05T15:59:02.247Z,3.65
2023-04-05T16:01:32.251Z,3.90
2023-04-05T16:04:02.221Z,4.25
2023-04-05T16:06:34.657Z,4.03
2023-04-05T16:09:04.684Z,4.47
2023-04-05T16:11:36.990Z,4.00
2023-04-05T16:14:11.325Z,4.22
2023-04-05T16:16:52.382Z,3.95
2023-04-05T16:19:26.553Z,3.92
2023-04-05T16:21:56.164Z,4.15
2023-04-05T16:24:26.942Z,3.83
2023-04-05T16:26:59.199Z,4.15
2023-04-05T16:29:28.771Z,4.22
2023-04-05T16:31:58.454Z,4.10
2023-04-05T16:34:28.182Z,3.92
2023-04-05T16:36:57.734Z,4.32
2023-04-05T16:39:27.237Z,3.88
2023-04-05T16:42:00.860Z,3.20
2023-04-05T16:44:32.280Z,3.97
2023-04-05T16:47:02.248Z,3.95
2023-04-05T16:49:31.792Z,4.30
2023-04-05T16:52:02.623Z,4.20
2023-04-05T16:54:32.588Z,4.80
2023-04-05T16:57:04.869Z,4.32
2023-04-05T16:59:34.546Z,5.10
2023-04-05T17:02:04.221Z,4.93
2023-04-05T17:04:34.647Z,4.85
2023-04-05T17:07:05.247Z,4.80
2023-04-05T17:09:34.817Z,4.90
2023-04-05T17:12:12.332Z,5.70
2023-04-05T17:14:42.057Z,4.88
2023-04-05T17:17:11.663Z,5.28
2023-04-05T17:19:41.337Z,4.65
2023-04-05T17:22:11.113Z,4.40
2023-04-05T17:24:40.886Z,4.53
2023-04-05T17:27:13.306Z,5.15
2023-04-05T17:29:42.869Z,5.00
2023-04-05T17:32:12.459Z,4.55
2023-04-05T17:34:42.131Z,5.05
2023-04-05T17:37:11.653Z,4.50
2023-04-05T17:39:41.848Z,4.65
2023-04-05T17:42:13.997Z,4.97
2023-04-05T17:44:43.619Z,4.57
2023-04-05T17:47:13.221Z,4.65
2023-04-05T17:49:42.869Z,4.55
2023-04-05T17:52:13.317Z,4.78
2023-04-05T17:54:43.507Z,5.47
2023-04-05T17:57:15.846Z,5.32
2023-04-05T17:59:45.965Z,5.47
2023-04-05T18:02:15.650Z,5.20
2023-04-05T18:04:45.325Z,5.00
2023-04-05T18:07:15.563Z,5.95
2023-04-05T18:09:45.191Z,5.75
2023-04-05T18:12:17.422Z,6.07
2023-04-05T18:14:46.952Z,8.10
2023-04-05T18:17:16.521Z,7.47
2023-04-05T18:19:46.183Z,4.90
2023-04-05T18:22:16.260Z,5.40
2023-04-05T18:24:46.370Z,7.45
2023-04-05T18:27:18.570Z,8.65
2023-04-05T18:29:48.734Z,10.10
2023-04-05T18:32:18.871Z,10.27
2023-04-05T18:34:48.459Z,11.52
2023-04-05T18:37:18.088Z,10.85
2023-04-05T18:39:47.610Z,11.05
2023-04-05T18:42:19.775Z,10.25
2023-04-05T18:44:49.408Z,10.98
2023-04-05T18:47:18.995Z,12.35
2023-04-05T18:49:48.629Z,11.10
2023-04-05T18:52:22.710Z,9.70
2023-04-05T18:54:52.282Z,7.70
2023-04-05T18:57:24.463Z,8.57
2023-04-05T18:59:54.023Z,11.48
2023-04-05T19:02:23.640Z,8.13
2023-04-05T19:04:55.336Z,11.73
2023-04-05T19:07:25.222Z,11.30
2023-04-05T19:09:54.766Z,8.10
2023-04-05T19:12:26.872Z,12.88
2023-04-05T19:14:56.469Z,12.32
2023-04-05T19:17:26.029Z,10.52
2023-04-05T19:19:55.662Z,13.73
2023-04-05T19:22:25.314Z,12.48
2023-04-05T19:24:55.069Z,14.15
2023-04-05T19:27:30.884Z,12.13
2023-04-05T19:30:00.417Z,11.52
2023-04-05T19:32:30.073Z,11.77
2023-04-05T19:34:59.801Z,11.57
2023-04-05T19:37:29.478Z,15.30
2023-04-05T19:39:59.103Z,12.70
2023-04-05T19:42:31.512Z,12.90
2023-04-05T19:45:01.689Z,15.38
2023-04-05T19:47:31.757Z,15.00
2023-04-05T19:50:02.051Z,13.13
2023-04-05T19:52:45.625Z,13.88
2023-04-05T19:55:33.948Z,15.07
2023-04-05T19:58:09.662Z,17.33
2023-04-05T20:00:42.069Z,17.65
2023-04-05T20:03:31.397Z,17.27
2023-04-05T20:06:05.433Z,17.77
2023-04-05T20:08:36.913Z,20.17
2023-04-05T20:11:10.523Z,18.80
2023-04-05T20:13:45.392Z,17.23
2023-04-05T20:16:16.633Z,18.42
2023-04-05T20:18:51.080Z,13.95
2023-04-05T20:21:21.827Z,15.85
2023-04-05T20:23:51.534Z,17.88
2023-04-05T20:26:29.786Z,19.58
2023-04-05T20:29:03.895Z,19.42
2023-04-05T20:31:39.046Z,20.08
2023-04-05T20:34:12.708Z,20.85
2023-04-05T20:36:47.820Z,20.63
2023-04-05T20:39:17.459Z,20.42
2023-04-05T20:41:47.245Z,19.55
2023-04-05T20:44:19.437Z,19.63
2023-04-05T20:46:49.092Z,20.00
2023-04-05T20:49:18.647Z,19.63
2023-04-05T20:51:48.267Z,21.35
2023-04-05T20:54:17.997Z,21.08
2023-04-05T20:56:47.585Z,20.77
2023-04-05T20:59:19.828Z,22.77
2023-04-05T21:01:49.853Z,26.67
2023-04-05T21:04:19.521Z,45.60
2023-04-05T21:06:49.103Z,31.52
2023-04-05T21:09:18.777Z,33.17
2023-04-05T21:11:48.341Z,34.63
2023-04-05T21:14:20.547Z,31.40
2023-04-05T21:16:50.266Z,31.35
2023-04-05T21:19:19.838Z,32.75
2023-04-05T21:21:49.381Z,37.95
2023-04-05T21:24:18.926Z,29.08
2023-04-05T21:26:48.443Z,24.85
2023-04-05T21:29:20.733Z,30.85
2023-04-05T21:31:50.502Z,29.35
2023-04-05T21:34:20.162Z,29.30
2023-04-05T21:36:49.714Z,30.75
2023-04-05T21:39:19.262Z,30.60
2023-04-05T21:41:48.929Z,31.75
2023-04-05T21:44:21.101Z,30.92
2023-04-05T21:46:50.723Z,33.00
2023-04-05T21:49:20.370Z,34.17
2023-04-05T21:51:49.966Z,36.25
2023-04-05T21:54:19.576Z,34.20
2023-04-05T21:56:49.150Z,31.40
2023-04-05T21:59:21.736Z,30.13
2023-04-05T22:01:51.515Z,37.80
2023-04-05T22:04:21.202Z,38.03
2023-04-05T22:06:50.741Z,33.75
2023-04-05T22:09:20.450Z,31.88
2023-04-05T22:11:50.040Z,33.13
2023-04-05T22:14:22.317Z,38.33
2023-04-05T22:16:51.970Z,34.15
2023-04-05T22:19:21.945Z,49.67
2023-04-05T22:21:51.481Z,47.40
2023-04-05T22:24:21.098Z,64.93
2023-04-05T22:26:52.082Z,48.17
2023-04-05T22:29:24.629Z,35.40
2023-04-05T22:31:54.426Z,37.60
2023-04-05T22:34:24.097Z,36.70
2023-04-05T22:36:53.653Z,38.47
2023-04-05T22:39:23.279Z,36.00
2023-04-05T22:41:52.799Z,36.13
2023-04-05T22:44:25.355Z,38.47
2023-04-05T22:46:54.919Z,39.10
2023-04-05T22:49:24.442Z,37.80
2023-04-05T22:51:53.962Z,38.47
2023-04-05T22:54:23.486Z,35.72
2023-04-05T22:56:53.003Z,42.45
2023-04-05T22:59:25.680Z,37.08
2023-04-05T23:01:57.704Z,36.38
2023-04-05T23:04:27.763Z,38.60
2023-04-05T23:06:57.384Z,38.33
2023-04-05T23:09:27.505Z,38.97
2023-04-05T23:11:57.174Z,38.65
2023-04-05T23:14:29.396Z,44.85
2023-04-05T23:16:58.981Z,47.67
2023-04-05T23:19:28.530Z,38.83
2023-04-05T23:21:58.341Z,55.58
2023-04-05T23:24:28.021Z,46.22
2023-04-05T23:26:57.584Z,50.10
2023-04-05T23:29:29.825Z,47.78
2023-04-05T23:31:59.409Z,50.13
2023-04-05T23:34:29.003Z,45.08
2023-04-05T23:36:58.532Z,50.95
2023-04-05T23:39:28.164Z,55.15
2023-04-05T23:41:57.759Z,47.75
2023-04-05T23:44:30.044Z,73.05
2023-04-05T23:46:59.771Z,53.38
2023-04-05T23:49:29.426Z,41.35
2023-04-05T23:51:59.044Z,42.78
2023-04-05T23:54:28.577Z,51.90
2023-04-05T23:56:58.122Z,49.70
2023-04-05T23:59:30.303Z,51.30
